sensor_id;sensor_type;location;lat;lon;timestamp;temperature;humidity
2851;DHT22;1433;49.976;8.342;2023-09-18T00:00:15;20.10;99.90
2851;DHT22;1433;49.976;8.342;2023-09-18T00:02:42;20.00;99.90
2851;DHT22;1433;49.976;8.342;2023-09-18T00:05:17;20.00;99.90
2851;DHT22;1433;49.976;8.342;2023-09-18T00:07:44;20.00;99.90
2851;DHT22;1433;49.976;8.342;2023-09-18T00:10:11;20.00;99.90
2851;DHT22;1433;49.976;8.342;2023-09-18T00:12:38;20.00;99.90
2851;DHT22;1433;49.976;8.342;2023-09-18T00:15:05;19.90;99.90
2851;DHT22;1433;49.976;8.342;2023-09-18T00:17:32;19.90;99.90
2851;DHT22;1433;49.976;8.342;2023-09-18T00:19:58;19.90;99.90
2851;DHT22;1433;49.976;8.342;2023-09-18T00:22:24;19.90;99.90
2851;DHT22;1433;49.976;8.342;2023-09-18T00:24:50;19.90;99.90
2851;DHT22;1433;49.976;8.342;2023-09-18T00:27:16;20.00;99.90
2851;DHT22;1433;49.976;8.342;2023-09-18T00:29:43;20.00;99.90
2851;DHT22;1433;49.976;8.342;2023-09-18T00:32:09;20.00;99.90
2851;DHT22;1433;49.976;8.342;2023-09-18T00:34:35;20.00;99.90
2851;DHT22;1433;49.976;8.342;2023-09-18T00:37:01;20.00;99.90
2851;DHT22;1433;49.976;8.342;2023-09-18T00:39:28;20.00;99.90
2851;DHT22;1433;49.976;8.342;2023-09-18T00:41:54;19.90;99.90
2851;DHT22;1433;49.976;8.342;2023-09-18T00:44:21;20.00;99.90
2851;DHT22;1433;49.976;8.342;2023-09-18T00:46:48;20.00;99.90
2851;DHT22;1433;49.976;8.342;2023-09-18T00:49:16;20.00;99.90
2851;DHT22;1433;49.976;8.342;2023-09-18T00:51:44;20.00;99.90
2851;DHT22;1433;49.976;8.342;2023-09-18T00:54:10;20.10;99.90
2851;DHT22;1433;49.976;8.342;2023-09-18T00:56:37;20.10;99.90
2851;DHT22;1433;49.976;8.342;2023-09-18T00:59:04;20.20;99.90
2851;DHT22;1433;49.976;8.342;2023-09-18T01:01:31;20.20;99.90
2851;DHT22;1433;49.976;8.342;2023-09-18T01:03:58;20.10;99.90
2851;DHT22;1433;49.976;8.342;2023-09-18T01:06:27;20.00;99.90
2851;DHT22;1433;49.976;8.342;2023-09-18T01:08:56;20.00;99.90
2851;DHT22;1433;49.976;8.342;2023-09-18T01:11:41;20.00;99.90
2851;DHT22;1433;49.976;8.342;2023-09-18T01:14:28;20.00;99.90
2851;DHT22;1433;49.976;8.342;2023-09-18T01:16:58;19.90;99.90
2851;DHT22;1433;49.976;8.342;2023-09-18T01:19:45;19.90;99.90
2851;DHT22;1433;49.976;8.342;2023-09-18T01:22:10;19.90;99.90
2851;DHT22;1433;49.976;8.342;2023-09-18T01:24:37;19.90;99.90
2851;DHT22;1433;49.976;8.342;2023-09-18T01:27:07;19.80;99.90
2851;DHT22;1433;49.976;8.342;2023-09-18T01:29:33;19.80;99.90
2851;DHT22;1433;49.976;8.342;2023-09-18T01:31:59;19.80;99.90
2851;DHT22;1433;49.976;8.342;2023-09-18T01:34:28;19.90;99.90
2851;DHT22;1433;49.976;8.342;2023-09-18T01:36:56;19.90;99.90
2851;DHT22;1433;49.976;8.342;2023-09-18T01:39:25;20.00;99.90
2851;DHT22;1433;49.976;8.342;2023-09-18T01:41:55;20.00;99.90
2851;DHT22;1433;49.976;8.342;2023-09-18T01:44:21;20.00;99.90
2851;DHT22;1433;49.976;8.342;2023-09-18T01:46:48;20.10;99.90
2851;DHT22;1433;49.976;8.342;2023-09-18T01:49:16;20.10;99.90
2851;DHT22;1433;49.976;8.342;2023-09-18T01:51:42;20.10;99.90
2851;DHT22;1433;49.976;8.342;2023-09-18T01:54:08;20.10;99.90
2851;DHT22;1433;49.976;8.342;2023-09-18T01:56:35;20.10;99.90
2851;DHT22;1433;49.976;8.342;2023-09-18T01:59:01;20.20;99.90
2851;DHT22;1433;49.976;8.342;2023-09-18T02:01:27;20.30;99.90
2851;DHT22;1433;49.976;8.342;2023-09-18T02:03:55;19.70;99.90
2851;DHT22;1433;49.976;8.342;2023-09-18T02:06:21;19.30;99.90
2851;DHT22;1433;49.976;8.342;2023-09-18T02:08:47;19.20;99.90
2851;DHT22;1433;49.976;8.342;2023-09-18T02:11:14;19.20;99.90
2851;DHT22;1433;49.976;8.342;2023-09-18T02:13:40;19.10;99.90
2851;DHT22;1433;49.976;8.342;2023-09-18T02:16:06;19.00;99.90
2851;DHT22;1433;49.976;8.342;2023-09-18T02:18:32;19.00;99.90
2851;DHT22;1433;49.976;8.342;2023-09-18T02:20:58;18.90;99.90
2851;DHT22;1433;49.976;8.342;2023-09-18T02:23:25;19.00;99.90
2851;DHT22;1433;49.976;8.342;2023-09-18T02:25:57;19.00;99.90
2851;DHT22;1433;49.976;8.342;2023-09-18T02:28:24;19.00;99.90
2851;DHT22;1433;49.976;8.342;2023-09-18T02:30:50;19.00;99.90
2851;DHT22;1433;49.976;8.342;2023-09-18T02:33:17;18.90;99.90
2851;DHT22;1433;49.976;8.342;2023-09-18T02:35:43;18.90;99.90
2851;DHT22;1433;49.976;8.342;2023-09-18T02:38:09;18.80;99.90
2851;DHT22;1433;49.976;8.342;2023-09-18T02:40:36;18.80;99.90
2851;DHT22;1433;49.976;8.342;2023-09-18T02:43:02;18.80;99.90
2851;DHT22;1433;49.976;8.342;2023-09-18T02:45:29;18.80;99.90
2851;DHT22;1433;49.976;8.342;2023-09-18T02:47:55;18.80;99.90
2851;DHT22;1433;49.976;8.342;2023-09-18T02:50:26;18.70;99.90
2851;DHT22;1433;49.976;8.342;2023-09-18T02:52:51;18.70;99.90
2851;DHT22;1433;49.976;8.342;2023-09-18T02:55:17;18.60;99.90
2851;DHT22;1433;49.976;8.342;2023-09-18T02:57:43;18.60;99.90
2851;DHT22;1433;49.976;8.342;2023-09-18T03:00:10;18.50;99.90
2851;DHT22;1433;49.976;8.342;2023-09-18T03:02:36;18.50;99.90
2851;DHT22;1433;49.976;8.342;2023-09-18T03:05:03;18.50;99.90
2851;DHT22;1433;49.976;8.342;2023-09-18T03:07:30;18.40;99.90
2851;DHT22;1433;49.976;8.342;2023-09-18T03:09:56;18.50;99.90
2851;DHT22;1433;49.976;8.342;2023-09-18T03:12:22;18.50;99.90
2851;DHT22;1433;49.976;8.342;2023-09-18T03:14:48;18.50;99.90
2851;DHT22;1433;49.976;8.342;2023-09-18T03:17:15;18.50;99.90
2851;DHT22;1433;49.976;8.342;2023-09-18T03:19:41;18.50;99.90
2851;DHT22;1433;49.976;8.342;2023-09-18T03:22:07;18.60;99.90
2851;DHT22;1433;49.976;8.342;2023-09-18T03:24:34;18.60;99.90
2851;DHT22;1433;49.976;8.342;2023-09-18T03:27:00;18.60;99.90
2851;DHT22;1433;49.976;8.342;2023-09-18T03:29:26;18.60;99.90
2851;DHT22;1433;49.976;8.342;2023-09-18T03:31:52;18.60;99.90
2851;DHT22;1433;49.976;8.342;2023-09-18T03:34:19;18.60;99.90
2851;DHT22;1433;49.976;8.342;2023-09-18T03:36:46;18.70;99.90
2851;DHT22;1433;49.976;8.342;2023-09-18T03:39:12;18.70;99.90
2851;DHT22;1433;49.976;8.342;2023-09-18T03:41:38;18.70;99.90
2851;DHT22;1433;49.976;8.342;2023-09-18T03:44:04;18.70;99.90
2851;DHT22;1433;49.976;8.342;2023-09-18T03:46:30;18.70;99.90
2851;DHT22;1433;49.976;8.342;2023-09-18T03:48:57;18.70;99.90
2851;DHT22;1433;49.976;8.342;2023-09-18T03:51:24;18.70;99.90
2851;DHT22;1433;49.976;8.342;2023-09-18T03:53:50;18.70;99.90
2851;DHT22;1433;49.976;8.342;2023-09-18T03:56:17;18.80;99.90
2851;DHT22;1433;49.976;8.342;2023-09-18T03:58:43;18.80;99.90
2851;DHT22;1433;49.976;8.342;2023-09-18T04:01:11;18.80;99.90
2851;DHT22;1433;49.976;8.342;2023-09-18T04:03:37;18.80;99.90
2851;DHT22;1433;49.976;8.342;2023-09-18T04:06:04;18.80;99.90
2851;DHT22;1433;49.976;8.342;2023-09-18T04:08:30;18.80;99.90
2851;DHT22;1433;49.976;8.342;2023-09-18T04:10:58;18.80;99.90
2851;DHT22;1433;49.976;8.342;2023-09-18T04:13:25;18.80;99.90
2851;DHT22;1433;49.976;8.342;2023-09-18T04:15:52;18.80;99.90
2851;DHT22;1433;49.976;8.342;2023-09-18T04:18:23;18.80;99.90
2851;DHT22;1433;49.976;8.342;2023-09-18T04:20:49;18.90;99.90
2851;DHT22;1433;49.976;8.342;2023-09-18T04:23:25;18.90;99.90
2851;DHT22;1433;49.976;8.342;2023-09-18T04:25:53;18.90;99.90
2851;DHT22;1433;49.976;8.342;2023-09-18T04:28:21;18.90;99.90
2851;DHT22;1433;49.976;8.342;2023-09-18T04:30:48;18.90;99.90
2851;DHT22;1433;49.976;8.342;2023-09-18T04:33:14;18.90;99.90
2851;DHT22;1433;49.976;8.342;2023-09-18T04:35:41;18.90;99.90
2851;DHT22;1433;49.976;8.342;2023-09-18T04:38:07;18.90;99.90
2851;DHT22;1433;49.976;8.342;2023-09-18T04:40:37;19.00;99.90
2851;DHT22;1433;49.976;8.342;2023-09-18T04:43:03;18.90;99.90
2851;DHT22;1433;49.976;8.342;2023-09-18T04:45:31;18.90;99.90
2851;DHT22;1433;49.976;8.342;2023-09-18T04:47:58;19.00;99.90
2851;DHT22;1433;49.976;8.342;2023-09-18T04:50:26;18.90;99.90
2851;DHT22;1433;49.976;8.342;2023-09-18T04:52:53;19.00;99.90
2851;DHT22;1433;49.976;8.342;2023-09-18T04:55:20;18.90;99.90
2851;DHT22;1433;49.976;8.342;2023-09-18T04:57:47;18.90;99.90
2851;DHT22;1433;49.976;8.342;2023-09-18T05:00:15;18.90;99.90
2851;DHT22;1433;49.976;8.342;2023-09-18T05:02:42;18.90;99.90
2851;DHT22;1433;49.976;8.342;2023-09-18T05:05:09;18.90;99.90
2851;DHT22;1433;49.976;8.342;2023-09-18T05:07:35;18.90;99.90
2851;DHT22;1433;49.976;8.342;2023-09-18T05:10:01;18.90;99.90
2851;DHT22;1433;49.976;8.342;2023-09-18T05:12:30;18.90;99.90
2851;DHT22;1433;49.976;8.342;2023-09-18T05:14:56;18.90;99.90
2851;DHT22;1433;49.976;8.342;2023-09-18T05:17:47;18.90;99.90
2851;DHT22;1433;49.976;8.342;2023-09-18T05:20:10;18.90;99.90
2851;DHT22;1433;49.976;8.342;2023-09-18T05:22:42;18.90;99.90
2851;DHT22;1433;49.976;8.342;2023-09-18T05:25:09;18.90;99.90
2851;DHT22;1433;49.976;8.342;2023-09-18T05:27:40;18.90;99.90
2851;DHT22;1433;49.976;8.342;2023-09-18T05:30:14;19.00;99.90
2851;DHT22;1433;49.976;8.342;2023-09-18T05:32:44;19.00;99.90
2851;DHT22;1433;49.976;8.342;2023-09-18T05:35:11;19.00;99.90
2851;DHT22;1433;49.976;8.342;2023-09-18T05:37:39;19.00;99.90
2851;DHT22;1433;49.976;8.342;2023-09-18T05:40:07;19.00;99.90
2851;DHT22;1433;49.976;8.342;2023-09-18T05:42:40;19.00;99.90
2851;DHT22;1433;49.976;8.342;2023-09-18T05:45:13;19.10;99.90
2851;DHT22;1433;49.976;8.342;2023-09-18T05:47:41;19.10;99.90
2851;DHT22;1433;49.976;8.342;2023-09-18T05:50:09;19.10;99.90
2851;DHT22;1433;49.976;8.342;2023-09-18T05:52:36;19.20;99.90
2851;DHT22;1433;49.976;8.342;2023-09-18T05:55:02;19.20;99.90
2851;DHT22;1433;49.976;8.342;2023-09-18T05:57:29;19.20;99.90
2851;DHT22;1433;49.976;8.342;2023-09-18T05:59:55;19.30;99.90
2851;DHT22;1433;49.976;8.342;2023-09-18T06:02:22;19.30;99.90
2851;DHT22;1433;49.976;8.342;2023-09-18T06:04:48;19.30;99.90
2851;DHT22;1433;49.976;8.342;2023-09-18T06:07:15;19.30;99.90
2851;DHT22;1433;49.976;8.342;2023-09-18T06:09:41;19.30;99.90
2851;DHT22;1433;49.976;8.342;2023-09-18T06:12:07;19.30;99.90
2851;DHT22;1433;49.976;8.342;2023-09-18T06:14:35;19.30;99.90
2851;DHT22;1433;49.976;8.342;2023-09-18T06:17:04;19.40;99.90
2851;DHT22;1433;49.976;8.342;2023-09-18T06:19:32;19.30;99.90
2851;DHT22;1433;49.976;8.342;2023-09-18T06:21:58;19.30;99.90
2851;DHT22;1433;49.976;8.342;2023-09-18T06:24:25;19.30;99.90
2851;DHT22;1433;49.976;8.342;2023-09-18T06:26:51;19.40;99.90
2851;DHT22;1433;49.976;8.342;2023-09-18T06:29:17;19.40;99.90
2851;DHT22;1433;49.976;8.342;2023-09-18T06:31:44;19.40;99.90
2851;DHT22;1433;49.976;8.342;2023-09-18T06:34:10;19.40;99.90
2851;DHT22;1433;49.976;8.342;2023-09-18T06:36:36;19.50;99.90
2851;DHT22;1433;49.976;8.342;2023-09-18T06:39:03;19.50;99.90
2851;DHT22;1433;49.976;8.342;2023-09-18T06:41:29;19.60;99.90
2851;DHT22;1433;49.976;8.342;2023-09-18T06:43:55;19.60;99.90
2851;DHT22;1433;49.976;8.342;2023-09-18T06:46:23;19.60;99.90
2851;DHT22;1433;49.976;8.342;2023-09-18T06:48:49;19.60;99.90
2851;DHT22;1433;49.976;8.342;2023-09-18T06:51:16;19.70;99.90
2851;DHT22;1433;49.976;8.342;2023-09-18T06:53:43;19.80;99.90
2851;DHT22;1433;49.976;8.342;2023-09-18T06:56:09;19.80;99.90
2851;DHT22;1433;49.976;8.342;2023-09-18T06:58:35;19.80;99.90
2851;DHT22;1433;49.976;8.342;2023-09-18T07:01:02;19.90;99.90
2851;DHT22;1433;49.976;8.342;2023-09-18T07:03:31;19.90;99.90
2851;DHT22;1433;49.976;8.342;2023-09-18T07:05:58;20.00;99.90
2851;DHT22;1433;49.976;8.342;2023-09-18T07:08:24;20.10;99.90
2851;DHT22;1433;49.976;8.342;2023-09-18T07:10:50;20.10;99.90
2851;DHT22;1433;49.976;8.342;2023-09-18T07:13:17;20.20;99.90
2851;DHT22;1433;49.976;8.342;2023-09-18T07:15:43;20.30;99.90
2851;DHT22;1433;49.976;8.342;2023-09-18T07:18:10;20.30;99.90
2851;DHT22;1433;49.976;8.342;2023-09-18T07:20:38;20.40;99.90
2851;DHT22;1433;49.976;8.342;2023-09-18T07:23:04;20.40;99.90
2851;DHT22;1433;49.976;8.342;2023-09-18T07:25:30;20.50;99.90
2851;DHT22;1433;49.976;8.342;2023-09-18T07:27:56;20.50;99.90
2851;DHT22;1433;49.976;8.342;2023-09-18T07:30:22;20.60;99.90
2851;DHT22;1433;49.976;8.342;2023-09-18T07:32:50;20.60;99.90
2851;DHT22;1433;49.976;8.342;2023-09-18T07:35:17;20.70;99.90
2851;DHT22;1433;49.976;8.342;2023-09-18T07:37:43;20.80;99.90
2851;DHT22;1433;49.976;8.342;2023-09-18T07:40:11;20.80;99.90
2851;DHT22;1433;49.976;8.342;2023-09-18T07:42:37;20.80;99.90
2851;DHT22;1433;49.976;8.342;2023-09-18T07:45:04;20.80;99.90
2851;DHT22;1433;49.976;8.342;2023-09-18T07:47:30;20.80;99.90
2851;DHT22;1433;49.976;8.342;2023-09-18T07:50:05;21.00;99.90
2851;DHT22;1433;49.976;8.342;2023-09-18T07:52:32;21.10;99.90
2851;DHT22;1433;49.976;8.342;2023-09-18T07:54:58;21.20;99.90
2851;DHT22;1433;49.976;8.342;2023-09-18T07:57:26;21.30;99.90
2851;DHT22;1433;49.976;8.342;2023-09-18T07:59:54;21.40;99.90
2851;DHT22;1433;49.976;8.342;2023-09-18T08:02:20;21.50;99.90
2851;DHT22;1433;49.976;8.342;2023-09-18T08:04:47;21.60;99.90
2851;DHT22;1433;49.976;8.342;2023-09-18T08:07:14;21.60;99.90
2851;DHT22;1433;49.976;8.342;2023-09-18T08:09:40;21.70;99.90
2851;DHT22;1433;49.976;8.342;2023-09-18T08:12:09;21.70;99.90
2851;DHT22;1433;49.976;8.342;2023-09-18T08:14:38;21.90;99.90
2851;DHT22;1433;49.976;8.342;2023-09-18T08:17:05;22.10;99.90
2851;DHT22;1433;49.976;8.342;2023-09-18T08:19:31;22.30;99.90
2851;DHT22;1433;49.976;8.342;2023-09-18T08:21:58;22.40;99.90
2851;DHT22;1433;49.976;8.342;2023-09-18T08:24:29;22.50;99.90
2851;DHT22;1433;49.976;8.342;2023-09-18T08:26:55;22.70;99.90
2851;DHT22;1433;49.976;8.342;2023-09-18T08:29:22;22.70;99.90
2851;DHT22;1433;49.976;8.342;2023-09-18T08:31:49;22.80;99.90
2851;DHT22;1433;49.976;8.342;2023-09-18T08:34:17;22.80;99.90
2851;DHT22;1433;49.976;8.342;2023-09-18T08:36:43;22.80;99.90
2851;DHT22;1433;49.976;8.342;2023-09-18T08:39:09;22.70;99.90
2851;DHT22;1433;49.976;8.342;2023-09-18T08:41:38;22.60;99.90
2851;DHT22;1433;49.976;8.342;2023-09-18T08:44:07;22.70;99.90
2851;DHT22;1433;49.976;8.342;2023-09-18T08:46:34;22.60;99.90
2851;DHT22;1433;49.976;8.342;2023-09-18T08:49:00;22.70;99.90
2851;DHT22;1433;49.976;8.342;2023-09-18T08:51:27;22.70;99.90
2851;DHT22;1433;49.976;8.342;2023-09-18T08:53:54;22.80;99.90
2851;DHT22;1433;49.976;8.342;2023-09-18T08:56:22;22.70;99.90
2851;DHT22;1433;49.976;8.342;2023-09-18T08:58:49;22.80;99.90
2851;DHT22;1433;49.976;8.342;2023-09-18T09:01:16;22.60;99.90
2851;DHT22;1433;49.976;8.342;2023-09-18T09:03:42;22.50;99.90
2851;DHT22;1433;49.976;8.342;2023-09-18T09:06:12;22.40;99.90
2851;DHT22;1433;49.976;8.342;2023-09-18T09:08:38;22.40;99.90
2851;DHT22;1433;49.976;8.342;2023-09-18T09:11:05;22.40;99.90
2851;DHT22;1433;49.976;8.342;2023-09-18T09:13:31;22.30;99.90
2851;DHT22;1433;49.976;8.342;2023-09-18T09:15:58;22.40;99.90
2851;DHT22;1433;49.976;8.342;2023-09-18T09:18:27;22.60;99.90
2851;DHT22;1433;49.976;8.342;2023-09-18T09:21:02;22.80;96.40
2851;DHT22;1433;49.976;8.342;2023-09-18T09:23:47;23.00;99.90
2851;DHT22;1433;49.976;8.342;2023-09-18T09:26:22;23.00;1.00
2851;DHT22;1433;49.976;8.342;2023-09-18T09:28:49;22.90;1.00
2851;DHT22;1433;49.976;8.342;2023-09-18T09:31:32;22.70;1.70
2851;DHT22;1433;49.976;8.342;2023-09-18T09:33:55;22.70;99.90
2851;DHT22;1433;49.976;8.342;2023-09-18T09:36:26;22.60;66.50
2851;DHT22;1433;49.976;8.342;2023-09-18T09:38:57;22.50;74.40
2851;DHT22;1433;49.976;8.342;2023-09-18T09:41:26;22.40;99.90
2851;DHT22;1433;49.976;8.342;2023-09-18T09:43:55;22.40;99.90
2851;DHT22;1433;49.976;8.342;2023-09-18T09:46:22;22.30;99.90
2851;DHT22;1433;49.976;8.342;2023-09-18T09:49:04;22.20;99.90
2851;DHT22;1433;49.976;8.342;2023-09-18T09:51:31;22.30;99.90
2851;DHT22;1433;49.976;8.342;2023-09-18T09:53:59;22.20;99.90
2851;DHT22;1433;49.976;8.342;2023-09-18T09:56:46;22.20;99.90
2851;DHT22;1433;49.976;8.342;2023-09-18T09:59:14;22.20;99.90
2851;DHT22;1433;49.976;8.342;2023-09-18T10:01:41;22.30;92.70
2851;DHT22;1433;49.976;8.342;2023-09-18T10:04:12;22.60;99.90
2851;DHT22;1433;49.976;8.342;2023-09-18T10:06:42;22.70;1.00
2851;DHT22;1433;49.976;8.342;2023-09-18T10:09:12;22.80;16.30
2851;DHT22;1433;49.976;8.342;2023-09-18T10:11:43;22.90;1.00
2851;DHT22;1433;49.976;8.342;2023-09-18T10:14:19;22.70;1.00
2851;DHT22;1433;49.976;8.342;2023-09-18T10:16:49;22.70;1.00
2851;DHT22;1433;49.976;8.342;2023-09-18T10:19:32;22.60;1.00
2851;DHT22;1433;49.976;8.342;2023-09-18T10:22:17;22.60;1.00
2851;DHT22;1433;49.976;8.342;2023-09-18T10:24:44;22.60;1.00
2851;DHT22;1433;49.976;8.342;2023-09-18T10:27:13;22.50;87.00
2851;DHT22;1433;49.976;8.342;2023-09-18T10:29:41;22.40;1.00
2851;DHT22;1433;49.976;8.342;2023-09-18T10:32:08;22.30;17.90
2851;DHT22;1433;49.976;8.342;2023-09-18T10:34:34;22.20;72.70
2851;DHT22;1433;49.976;8.342;2023-09-18T10:37:03;22.30;99.90
2851;DHT22;1433;49.976;8.342;2023-09-18T10:39:38;22.30;99.90
2851;DHT22;1433;49.976;8.342;2023-09-18T10:42:07;22.50;1.00
2851;DHT22;1433;49.976;8.342;2023-09-18T10:44:34;22.60;1.00
2851;DHT22;1433;49.976;8.342;2023-09-18T10:47:03;22.60;1.00
2851;DHT22;1433;49.976;8.342;2023-09-18T10:49:32;22.70;1.00
2851;DHT22;1433;49.976;8.342;2023-09-18T10:51:58;22.70;1.00
2851;DHT22;1433;49.976;8.342;2023-09-18T10:54:28;22.80;1.00
2851;DHT22;1433;49.976;8.342;2023-09-18T10:56:56;22.70;1.00
2851;DHT22;1433;49.976;8.342;2023-09-18T10:59:23;22.60;1.00
2851;DHT22;1433;49.976;8.342;2023-09-18T11:01:50;22.60;1.00
2851;DHT22;1433;49.976;8.342;2023-09-18T11:04:20;22.70;1.00
2851;DHT22;1433;49.976;8.342;2023-09-18T11:09:28;22.70;1.00
2851;DHT22;1433;49.976;8.342;2023-09-18T11:12:03;22.90;1.00
2851;DHT22;1433;49.976;8.342;2023-09-18T11:20:06;22.70;1.00
2851;DHT22;1433;49.976;8.342;2023-09-18T11:22:45;22.60;1.00
2851;DHT22;1433;49.976;8.342;2023-09-18T11:25:36;22.50;1.00
2851;DHT22;1433;49.976;8.342;2023-09-18T11:28:04;22.70;1.00
2851;DHT22;1433;49.976;8.342;2023-09-18T11:30:36;22.80;1.00
2851;DHT22;1433;49.976;8.342;2023-09-18T11:33:06;23.00;1.00
2851;DHT22;1433;49.976;8.342;2023-09-18T11:35:32;23.20;1.00
2851;DHT22;1433;49.976;8.342;2023-09-18T11:38:09;23.50;99.90
2851;DHT22;1433;49.976;8.342;2023-09-18T11:40:37;23.50;99.90
2851;DHT22;1433;49.976;8.342;2023-09-18T11:43:26;23.40;99.90
2851;DHT22;1433;49.976;8.342;2023-09-18T11:45:53;23.50;1.00
2851;DHT22;1433;49.976;8.342;2023-09-18T11:48:22;23.40;1.00
2851;DHT22;1433;49.976;8.342;2023-09-18T11:50:51;23.30;99.90
2851;DHT22;1433;49.976;8.342;2023-09-18T11:53:18;23.30;1.00
2851;DHT22;1433;49.976;8.342;2023-09-18T11:55:45;23.30;99.90
2851;DHT22;1433;49.976;8.342;2023-09-18T11:58:12;23.30;1.00
2851;DHT22;1433;49.976;8.342;2023-09-18T12:00:39;23.30;99.90
2851;DHT22;1433;49.976;8.342;2023-09-18T12:03:22;23.10;1.00
2851;DHT22;1433;49.976;8.342;2023-09-18T12:05:54;23.10;99.90
2851;DHT22;1433;49.976;8.342;2023-09-18T12:08:21;23.20;99.90
2851;DHT22;1433;49.976;8.342;2023-09-18T12:10:49;23.30;99.90
2851;DHT22;1433;49.976;8.342;2023-09-18T12:13:16;23.60;99.90
2851;DHT22;1433;49.976;8.342;2023-09-18T12:15:43;23.80;1.00
2851;DHT22;1433;49.976;8.342;2023-09-18T12:18:10;24.20;99.90
2851;DHT22;1433;49.976;8.342;2023-09-18T12:20:46;24.70;99.90
2851;DHT22;1433;49.976;8.342;2023-09-18T12:23:13;25.50;1.00
2851;DHT22;1433;49.976;8.342;2023-09-18T12:25:39;26.10;1.00
2851;DHT22;1433;49.976;8.342;2023-09-18T12:28:07;27.30;1.00
2851;DHT22;1433;49.976;8.342;2023-09-18T12:30:33;27.90;99.90
2851;DHT22;1433;49.976;8.342;2023-09-18T12:33:00;27.70;99.90
2851;DHT22;1433;49.976;8.342;2023-09-18T12:35:26;27.90;1.00
2851;DHT22;1433;49.976;8.342;2023-09-18T12:37:58;28.00;1.00
2851;DHT22;1433;49.976;8.342;2023-09-18T12:40:29;27.60;99.90
2851;DHT22;1433;49.976;8.342;2023-09-18T12:42:57;27.30;1.00
2851;DHT22;1433;49.976;8.342;2023-09-18T12:45:24;27.60;1.00
2851;DHT22;1433;49.976;8.342;2023-09-18T12:47:51;27.70;99.90
2851;DHT22;1433;49.976;8.342;2023-09-18T12:50:18;27.00;99.90
2851;DHT22;1433;49.976;8.342;2023-09-18T12:52:44;26.30;99.90
2851;DHT22;1433;49.976;8.342;2023-09-18T12:55:24;26.10;99.90
2851;DHT22;1433;49.976;8.342;2023-09-18T12:57:51;25.70;99.90
2851;DHT22;1433;49.976;8.342;2023-09-18T13:00:19;25.60;99.90
2851;DHT22;1433;49.976;8.342;2023-09-18T13:02:47;25.30;99.90
2851;DHT22;1433;49.976;8.342;2023-09-18T13:05:18;24.90;99.90
2851;DHT22;1433;49.976;8.342;2023-09-18T13:07:44;25.10;1.00
2851;DHT22;1433;49.976;8.342;2023-09-18T13:10:12;25.10;99.90
2851;DHT22;1433;49.976;8.342;2023-09-18T13:12:51;25.10;1.00
2851;DHT22;1433;49.976;8.342;2023-09-18T13:15:28;25.10;1.00
2851;DHT22;1433;49.976;8.342;2023-09-18T13:17:57;25.20;1.00
2851;DHT22;1433;49.976;8.342;2023-09-18T13:20:25;25.70;1.00
2851;DHT22;1433;49.976;8.342;2023-09-18T13:22:54;25.70;1.00
2851;DHT22;1433;49.976;8.342;2023-09-18T13:25:22;25.30;1.00
2851;DHT22;1433;49.976;8.342;2023-09-18T13:27:53;25.10;1.00
2851;DHT22;1433;49.976;8.342;2023-09-18T13:30:19;24.90;99.90
2851;DHT22;1433;49.976;8.342;2023-09-18T13:32:49;24.80;1.00
2851;DHT22;1433;49.976;8.342;2023-09-18T13:35:16;25.00;1.00
2851;DHT22;1433;49.976;8.342;2023-09-18T13:37:43;24.90;1.00
2851;DHT22;1433;49.976;8.342;2023-09-18T13:40:11;25.10;1.00
2851;DHT22;1433;49.976;8.342;2023-09-18T13:42:38;25.30;1.00
2851;DHT22;1433;49.976;8.342;2023-09-18T13:45:06;25.70;1.00
2851;DHT22;1433;49.976;8.342;2023-09-18T13:47:33;25.60;1.00
2851;DHT22;1433;49.976;8.342;2023-09-18T13:50:01;25.40;1.00
2851;DHT22;1433;49.976;8.342;2023-09-18T13:52:32;25.50;1.00
2851;DHT22;1433;49.976;8.342;2023-09-18T13:55:00;25.60;1.00
2851;DHT22;1433;49.976;8.342;2023-09-18T13:57:26;25.40;1.00
2851;DHT22;1433;49.976;8.342;2023-09-18T13:59:52;25.50;1.00
2851;DHT22;1433;49.976;8.342;2023-09-18T14:02:19;26.10;1.00
2851;DHT22;1433;49.976;8.342;2023-09-18T14:04:45;26.60;1.00
2851;DHT22;1433;49.976;8.342;2023-09-18T14:07:11;27.10;1.00
2851;DHT22;1433;49.976;8.342;2023-09-18T14:09:38;27.80;1.00
2851;DHT22;1433;49.976;8.342;2023-09-18T14:12:05;28.30;1.00
2851;DHT22;1433;49.976;8.342;2023-09-18T14:14:34;27.90;1.00
2851;DHT22;1433;49.976;8.342;2023-09-18T14:17:02;27.70;1.00
2851;DHT22;1433;49.976;8.342;2023-09-18T14:19:30;27.60;1.00
2851;DHT22;1433;49.976;8.342;2023-09-18T14:21:56;27.30;1.00
2851;DHT22;1433;49.976;8.342;2023-09-18T14:24:22;26.90;1.00
2851;DHT22;1433;49.976;8.342;2023-09-18T14:26:51;26.60;1.00
2851;DHT22;1433;49.976;8.342;2023-09-18T14:29:17;26.50;1.00
2851;DHT22;1433;49.976;8.342;2023-09-18T14:31:44;26.40;1.00
2851;DHT22;1433;49.976;8.342;2023-09-18T14:34:10;26.40;1.00
2851;DHT22;1433;49.976;8.342;2023-09-18T14:36:36;26.30;1.00
2851;DHT22;1433;49.976;8.342;2023-09-18T14:39:06;26.50;1.00
2851;DHT22;1433;49.976;8.342;2023-09-18T14:41:35;26.80;1.00
2851;DHT22;1433;49.976;8.342;2023-09-18T14:44:03;26.30;1.00
2851;DHT22;1433;49.976;8.342;2023-09-18T14:46:31;25.80;1.00
2851;DHT22;1433;49.976;8.342;2023-09-18T14:49:01;25.40;99.90
2851;DHT22;1433;49.976;8.342;2023-09-18T14:51:27;25.20;99.90
2851;DHT22;1433;49.976;8.342;2023-09-18T14:53:58;25.10;99.90
2851;DHT22;1433;49.976;8.342;2023-09-18T14:56:24;25.70;1.00
2851;DHT22;1433;49.976;8.342;2023-09-18T14:58:50;25.80;99.90
2851;DHT22;1433;49.976;8.342;2023-09-18T15:01:18;25.70;99.90
2851;DHT22;1433;49.976;8.342;2023-09-18T15:03:44;25.50;99.90
2851;DHT22;1433;49.976;8.342;2023-09-18T15:06:10;25.30;99.90
2851;DHT22;1433;49.976;8.342;2023-09-18T15:08:37;25.10;99.90
2851;DHT22;1433;49.976;8.342;2023-09-18T15:11:03;25.10;99.90
2851;DHT22;1433;49.976;8.342;2023-09-18T15:13:30;25.10;99.90
2851;DHT22;1433;49.976;8.342;2023-09-18T15:15:57;25.00;1.00
2851;DHT22;1433;49.976;8.342;2023-09-18T15:18:25;24.90;1.00
2851;DHT22;1433;49.976;8.342;2023-09-18T15:20:51;24.70;1.00
2851;DHT22;1433;49.976;8.342;2023-09-18T15:23:24;24.60;99.90
2851;DHT22;1433;49.976;8.342;2023-09-18T15:25:51;24.60;99.90
2851;DHT22;1433;49.976;8.342;2023-09-18T15:28:20;24.50;1.00
2851;DHT22;1433;49.976;8.342;2023-09-18T15:30:47;24.50;1.00
2851;DHT22;1433;49.976;8.342;2023-09-18T15:33:13;24.50;1.00
2851;DHT22;1433;49.976;8.342;2023-09-18T15:35:41;24.40;1.00
2851;DHT22;1433;49.976;8.342;2023-09-18T15:38:08;24.40;14.60
2851;DHT22;1433;49.976;8.342;2023-09-18T15:40:34;24.30;26.90
2851;DHT22;1433;49.976;8.342;2023-09-18T15:43:00;24.30;1.00
2851;DHT22;1433;49.976;8.342;2023-09-18T15:45:26;24.60;1.00
2851;DHT22;1433;49.976;8.342;2023-09-18T15:47:52;24.50;1.00
2851;DHT22;1433;49.976;8.342;2023-09-18T15:50:19;24.60;1.00
2851;DHT22;1433;49.976;8.342;2023-09-18T15:52:45;24.60;99.90
2851;DHT22;1433;49.976;8.342;2023-09-18T15:55:11;24.50;99.90
2851;DHT22;1433;49.976;8.342;2023-09-18T15:57:38;24.30;99.90
2851;DHT22;1433;49.976;8.342;2023-09-18T16:00:06;24.20;99.90
2851;DHT22;1433;49.976;8.342;2023-09-18T16:02:35;24.00;1.00
2851;DHT22;1433;49.976;8.342;2023-09-18T16:05:02;23.90;1.00
2851;DHT22;1433;49.976;8.342;2023-09-18T16:07:33;23.80;99.90
2851;DHT22;1433;49.976;8.342;2023-09-18T16:10:01;23.80;10.40
2851;DHT22;1433;49.976;8.342;2023-09-18T16:12:27;23.70;99.90
2851;DHT22;1433;49.976;8.342;2023-09-18T16:14:54;23.60;99.90
2851;DHT22;1433;49.976;8.342;2023-09-18T16:17:20;23.40;1.00